Terminal Aerodrome Forecast
Issued by NWS Wakefield, VA

Home | Current Version | Previous Version | Text Only | Print | Product List | Glossary On
Versions: 1 2 3 4 5 6 7 8 9 10 11 12 13 14 15 16 17 18 19 20 21 22 23 24
000
FTUS41 KAKQ 210538
TAFECG
TAF
KECG 210538Z 2106/2206 18007KT P6SM SCT006
     FM210700 20007KT 2SM BR SCT003 BKN005
      TEMPO 2108/2110 1/2SM FG
     FM211000 19006KT 1/2SM FG OVC003
     FM211400 20007KT 5SM BR SCT015
     FM211500 21009KT P6SM SCT030
     FM211700 21011KT P6SM SKC=

USA.gov is the U.S. government's official web portal to all federal, state and local government web resources and services.